createdAt,value
2019-06-07T00:02:02.835Z,65.84
2019-06-07T00:04:35.403Z,66.22
2019-06-07T00:07:09.035Z,66.22
2019-06-07T00:09:41.898Z,65.73
2019-06-07T00:12:16.952Z,66.25
2019-06-07T00:14:48.924Z,65.98
2019-06-07T00:17:21.462Z,66.11
2019-06-07T00:19:53.985Z,66.48
2019-06-07T00:22:32.795Z,66.48
2019-06-07T00:25:00.710Z,66.24
2019-06-07T00:27:32.933Z,66.38
2019-06-07T00:30:34.921Z,66.07
2019-06-07T00:32:44.606Z,66.16
2019-06-07T00:35:19.373Z,65.95
2019-06-07T00:37:51.137Z,65.56
2019-06-07T00:40:31.518Z,65.73
2019-06-07T00:42:58.490Z,65.71
2019-06-07T00:45:35.195Z,65.34
2019-06-07T00:48:07.834Z,64.99
2019-06-07T00:50:40.286Z,65.05
2019-06-07T00:53:18.265Z,65.28
2019-06-07T00:55:47.107Z,65.72
2019-06-07T00:58:21.916Z,65.59
2019-06-07T01:00:53.894Z,65.24
2019-06-07T01:03:26.423Z,65.22
2019-06-07T01:05:58.865Z,65.13
2019-06-07T01:08:31.542Z,65.25
2019-06-07T01:11:04.065Z,65.19
2019-06-07T01:13:36.641Z,64.77
2019-06-07T01:16:08.950Z,64.20
2019-06-07T01:18:46.449Z,64.08
2019-06-07T01:21:19.797Z,64.25
2019-06-07T01:24:11.852Z,64.75
2019-06-07T01:26:26.840Z,67.12
2019-06-07T01:28:58.247Z,68.40
2019-06-07T01:31:31.736Z,69.88
2019-06-07T01:34:04.577Z,71.43
2019-06-07T01:36:37.251Z,73.46
2019-06-07T01:39:09.840Z,74.98
2019-06-07T01:41:42.380Z,77.49
2019-06-07T01:44:14.915Z,78.17
2019-06-07T01:46:48.320Z,79.41
2019-06-07T01:49:22.178Z,81.39
2019-06-07T01:51:54.964Z,82.54
2019-06-07T01:54:52.257Z,83.38
2019-06-07T01:57:01.572Z,83.31
2019-06-07T01:59:34.133Z,83.97
2019-06-07T02:02:06.675Z,84.44
2019-06-07T02:04:39.229Z,84.86
2019-06-07T02:07:12.962Z,84.73
2019-06-07T02:09:45.495Z,85.46
2019-06-07T02:12:28.092Z,84.24
2019-06-07T02:14:54.380Z,85.04
2019-06-07T02:17:30.150Z,83.61
2019-06-07T02:20:01.155Z,82.26
2019-06-07T02:22:33.753Z,81.17
2019-06-07T02:25:34.986Z,78.73
2019-06-07T02:27:41.258Z,75.84
2019-06-07T02:32:48.449Z,66.66
2019-06-07T02:35:25.585Z,62.27
2019-06-07T02:37:55.248Z,58.66
2019-06-07T02:40:36.395Z,56.27
2019-06-07T02:43:03.539Z,54.38
2019-06-07T02:45:43.082Z,52.40
2019-06-07T02:48:11.037Z,51.42
2019-06-07T02:50:43.803Z,49.78
2019-06-07T02:53:16.407Z,49.36
2019-06-07T02:56:33.894Z,47.98
2019-06-07T02:58:26.021Z,47.51
2019-06-07T03:01:07.517Z,47.38
2019-06-07T03:03:33.694Z,48.01
2019-06-07T03:06:06.177Z,46.75
2019-06-07T03:08:41.484Z,46.58
2019-06-07T03:11:16.191Z,46.47
2019-06-07T03:13:49.857Z,44.90
2019-06-07T03:16:33.842Z,39.41
2019-06-07T03:19:10.323Z,39.41
2019-06-07T03:21:43.386Z,36.69
2019-06-07T03:24:15.837Z,34.30
2019-06-07T03:29:28.321Z,32.86
2019-06-07T03:31:58.995Z,35.20
2019-06-07T03:34:38.168Z,36.92
2019-06-07T03:37:05.681Z,37.66
2019-06-07T03:39:41.015Z,38.49
2019-06-07T03:42:12.161Z,38.02
2019-06-07T03:44:45.254Z,37.60
2019-06-07T03:47:19.707Z,36.95
2019-06-07T03:49:51.927Z,36.13
2019-06-07T03:52:24.240Z,36.00
2019-06-07T03:54:58.817Z,35.05
2019-06-07T03:58:27.552Z,33.94
2019-06-07T04:00:08.044Z,32.86
2019-06-07T04:02:41.900Z,31.57
2019-06-07T04:05:15.053Z,31.75
2019-06-07T04:07:47.570Z,32.21
2019-06-07T04:10:41.133Z,31.14
2019-06-07T04:12:54.230Z,30.76
2019-06-07T04:15:27.800Z,30.27
2019-06-07T04:18:03.787Z,30.60
2019-06-07T04:20:36.654Z,30.61
2019-06-07T04:23:27.424Z,30.84
2019-06-07T04:25:42.981Z,31.65
2019-06-07T04:28:19.048Z,32.82
2019-06-07T04:30:51.853Z,32.05
2019-06-07T04:33:24.113Z,34.40
2019-06-07T04:35:56.782Z,34.32
2019-06-07T04:38:32.706Z,34.78
2019-06-07T04:41:05.066Z,33.75
2019-06-07T04:43:42.853Z,34.08
2019-06-07T04:46:17.903Z,31.36
2019-06-07T04:48:53.449Z,31.15
2019-06-07T04:51:26.847Z,32.25
2019-06-07T04:53:59.367Z,31.48
2019-06-07T04:56:33.817Z,31.18
2019-06-07T04:59:06.322Z,30.98
2019-06-07T05:01:42.319Z,31.90
2019-06-07T05:18:05.967Z,32.26
2019-06-07T05:20:41.593Z,31.45
2019-06-07T05:23:59.458Z,31.67
2019-06-07T05:25:48.144Z,30.02
2019-06-07T05:28:20.484Z,29.77
2019-06-07T05:31:05.089Z,30.60
2019-06-07T05:33:27.206Z,30.20
2019-06-07T05:35:59.398Z,30.51
2019-06-07T05:38:33.383Z,31.03
2019-06-07T05:41:06.022Z,31.57
2019-06-07T05:43:45.532Z,31.57
2019-06-07T05:46:15.914Z,30.63
2019-06-07T05:48:48.449Z,30.12
2019-06-07T05:51:20.872Z,30.52
2019-06-07T05:53:53.211Z,29.64
2019-06-07T05:56:25.765Z,30.05
2019-06-07T05:58:58.184Z,30.88
2019-06-07T06:01:44.986Z,30.12
2019-06-07T06:04:05.047Z,31.31
2019-06-07T06:06:39.568Z,31.50
2019-06-07T06:09:14.075Z,31.28
2019-06-07T06:11:59.689Z,32.19
2019-06-07T06:14:20.540Z,31.14
2019-06-07T06:16:53.022Z,31.95
2019-06-07T06:19:25.559Z,30.42
2019-06-07T06:21:57.937Z,31.36
2019-06-07T06:24:30.444Z,30.89
2019-06-07T06:27:18.864Z,31.92
2019-06-07T06:29:38.724Z,30.91
2019-06-07T06:32:41.212Z,30.19
2019-06-07T06:34:49.397Z,30.64
2019-06-07T06:37:20.507Z,32.45
2019-06-07T06:39:52.854Z,34.02
2019-06-07T06:42:25.168Z,35.74
2019-06-07T06:44:59.031Z,37.30
2019-06-07T06:47:31.398Z,37.94
2019-06-07T06:50:05.512Z,37.91
2019-06-07T06:52:39.932Z,38.89
2019-06-07T06:55:12.053Z,36.87
2019-06-07T06:57:45.742Z,38.28
2019-06-07T07:00:18.448Z,37.93
2019-06-07T07:03:40.674Z,40.91
2019-06-07T07:05:24.900Z,40.97
2019-06-07T07:07:57.225Z,41.25
2019-06-07T07:10:39.277Z,41.82
2019-06-07T07:13:11.799Z,43.05
2019-06-07T07:15:45.349Z,43.78
2019-06-07T07:18:19.025Z,43.25
2019-06-07T07:20:56.759Z,42.43
2019-06-07T07:23:27.108Z,41.75
2019-06-07T07:26:00.291Z,42.36
2019-06-07T07:28:33.374Z,40.54
2019-06-07T07:31:06.318Z,40.92
2019-06-07T07:36:35.636Z,39.72
2019-06-07T07:38:53.345Z,40.17
2019-06-07T07:41:22.224Z,38.74
2019-06-07T07:44:04.709Z,38.82
2019-06-07T07:46:30.143Z,34.34
2019-06-07T07:49:02.828Z,33.55
2019-06-07T07:51:35.733Z,34.56
2019-06-07T07:54:10.919Z,36.05
2019-06-07T07:56:45.295Z,34.12
2019-06-07T07:59:17.767Z,33.14
2019-06-07T08:01:53.927Z,33.12
2019-06-07T08:05:04.821Z,31.81
2019-06-07T08:06:59.119Z,31.56
2019-06-07T08:09:31.675Z,31.86
2019-06-07T08:12:04.089Z,31.49
2019-06-07T08:14:36.445Z,33.00
2019-06-07T08:17:08.749Z,31.78
2019-06-07T08:19:41.151Z,33.41
2019-06-07T08:22:14.104Z,34.38
2019-06-07T08:24:50.505Z,36.68
2019-06-07T08:27:26.271Z,35.48
2019-06-07T08:30:15.817Z,37.56
2019-06-07T08:32:29.256Z,37.39
2019-06-07T08:35:05.976Z,38.94
2019-06-07T08:38:14.896Z,36.11
2019-06-07T08:40:12.393Z,35.99
2019-06-07T08:43:04.529Z,34.86
2019-06-07T08:45:19.590Z,34.74
2019-06-07T08:47:59.397Z,35.10
2019-06-07T08:50:28.454Z,36.00
2019-06-07T08:53:11.827Z,31.92
2019-06-07T08:55:37.867Z,33.38
2019-06-07T08:58:11.435Z,34.16
2019-06-07T09:00:46.842Z,32.30
2019-06-07T09:03:18.895Z,31.76
2019-06-07T09:05:56.324Z,32.62
2019-06-07T09:08:30.809Z,35.37
2019-06-07T09:11:10.210Z,37.29
2019-06-07T09:13:36.475Z,40.32
2019-06-07T09:16:09.119Z,39.89
2019-06-07T09:18:44.395Z,38.63
2019-06-07T09:21:15.985Z,40.39
2019-06-07T09:23:48.323Z,40.92
2019-06-07T09:26:20.698Z,41.85
2019-06-07T09:28:53.437Z,42.68
2019-06-07T09:31:49.311Z,44.02
2019-06-07T09:34:07.975Z,44.08
2019-06-07T09:36:34.400Z,45.38
2019-06-07T09:39:12.494Z,45.72
2019-06-07T09:41:49.247Z,45.79
2019-06-07T09:44:24.739Z,45.71
2019-06-07T09:47:12.943Z,45.93
2019-06-07T09:49:32.349Z,46.26
2019-06-07T09:52:02.201Z,47.71
2019-06-07T09:57:15.071Z,47.58
2019-06-07T09:59:41.221Z,46.47
2019-06-07T10:02:15.498Z,45.21
2019-06-07T10:04:47.910Z,44.59
2019-06-07T10:07:31.230Z,45.58
2019-06-07T10:10:18.451Z,43.83
2019-06-07T10:12:28.833Z,42.75
2019-06-07T10:15:03.398Z,40.48
2019-06-07T10:17:36.231Z,43.32
2019-06-07T10:20:09.896Z,41.84
2019-06-07T10:22:42.974Z,42.28
2019-06-07T10:25:15.394Z,39.40
2019-06-07T10:27:47.672Z,42.56
2019-06-07T10:30:21.349Z,43.28
2019-06-07T10:32:53.692Z,42.87
2019-06-07T10:35:27.939Z,43.14
2019-06-07T10:38:00.401Z,43.05
2019-06-07T10:40:32.847Z,42.89
2019-06-07T10:43:07.101Z,43.22
2019-06-07T10:45:40.807Z,41.39
2019-06-07T10:48:13.373Z,44.41
2019-06-07T10:50:45.648Z,43.96
2019-06-07T10:53:18.044Z,41.86
2019-06-07T10:55:50.380Z,43.75
2019-06-07T10:58:22.748Z,44.70
2019-06-07T11:00:55.131Z,44.98
2019-06-07T11:03:28.199Z,45.28
2019-06-07T11:06:00.650Z,44.62
2019-06-07T11:08:32.949Z,44.28
2019-06-07T11:11:06.024Z,44.73
2019-06-07T11:13:38.564Z,45.73
2019-06-07T11:16:13.057Z,47.21
2019-06-07T11:18:48.675Z,46.45
2019-06-07T11:21:21.600Z,45.01
2019-06-07T11:23:54.625Z,47.65
2019-06-07T11:26:28.395Z,48.50
2019-06-07T11:29:00.976Z,46.95
2019-06-07T11:31:33.350Z,47.99
2019-06-07T11:34:06.322Z,47.30
2019-06-07T11:36:39.110Z,47.63
2019-06-07T11:39:15.114Z,48.75
2019-06-07T11:41:47.806Z,48.54
2019-06-07T11:44:20.160Z,48.06
2019-06-07T11:46:52.574Z,46.99
2019-06-07T11:49:24.922Z,47.68
2019-06-07T11:51:57.787Z,47.00
2019-06-07T11:54:30.119Z,48.44
2019-06-07T11:57:02.545Z,47.86
2019-06-07T11:59:34.855Z,49.21
2019-06-07T12:02:09.133Z,49.88
2019-06-07T12:04:41.938Z,50.07
2019-06-07T12:07:15.790Z,50.17
2019-06-07T12:09:56.327Z,50.70
2019-06-07T12:12:23.501Z,49.36
2019-06-07T12:14:55.812Z,50.12
2019-06-07T12:17:28.281Z,49.79
2019-06-07T12:20:00.824Z,50.12
2019-06-07T12:22:33.339Z,49.17
2019-06-07T12:25:10.168Z,50.31
2019-06-07T12:27:43.119Z,48.14
2019-06-07T12:30:23.710Z,50.19
2019-06-07T12:32:50.587Z,49.52
2019-06-07T12:35:23.016Z,48.81
2019-06-07T12:37:55.560Z,47.52
2019-06-07T12:40:32.229Z,47.44
2019-06-07T12:43:04.155Z,46.75
2019-06-07T12:45:44.961Z,46.94
2019-06-07T12:48:11.025Z,46.97
2019-06-07T12:50:45.865Z,45.09
2019-06-07T12:53:24.198Z,45.66
2019-06-07T12:55:53.385Z,45.25
2019-06-07T12:58:34.662Z,43.83
2019-06-07T13:01:01.166Z,45.58
2019-06-07T13:03:33.610Z,44.84
2019-06-07T13:06:05.935Z,45.04
2019-06-07T13:08:39.421Z,43.91
2019-06-07T13:11:17.606Z,43.16
2019-06-07T13:13:47.923Z,40.14
2019-06-07T13:16:22.074Z,42.58
2019-06-07T13:18:55.442Z,44.77
2019-06-07T13:21:29.869Z,45.79
2019-06-07T13:24:02.070Z,44.94
2019-06-07T13:26:34.644Z,46.13
2019-06-07T13:29:07.911Z,46.34
2019-06-07T13:31:42.607Z,44.67
2019-06-07T13:34:18.409Z,47.61
2019-06-07T13:36:52.871Z,45.45
2019-06-07T13:39:29.266Z,46.85
2019-06-07T13:42:00.965Z,46.46
2019-06-07T13:44:33.503Z,47.47
2019-06-07T13:47:09.263Z,47.30
2019-06-07T13:49:41.876Z,48.96
2019-06-07T13:52:14.985Z,50.50
2019-06-07T13:54:49.899Z,50.22
2019-06-07T13:57:24.390Z,50.48
2019-06-07T13:59:56.857Z,50.94
2019-06-07T14:02:29.934Z,52.59
2019-06-07T14:05:05.543Z,53.78
2019-06-07T14:07:37.974Z,54.15
2019-06-07T14:10:11.774Z,54.66
2019-06-07T14:12:44.589Z,53.20
2019-06-07T14:15:20.353Z,51.01
2019-06-07T14:17:53.159Z,53.54
2019-06-07T14:20:31.367Z,49.82
2019-06-07T14:23:01.566Z,49.97
2019-06-07T14:25:34.800Z,52.17
2019-06-07T14:28:11.256Z,51.96
2019-06-07T14:30:41.384Z,53.34
2019-06-07T14:33:13.680Z,51.59
2019-06-07T14:35:46.116Z,54.44
2019-06-07T14:38:18.556Z,58.21
2019-06-07T14:40:52.205Z,58.38
2019-06-07T14:43:25.118Z,61.30
2019-06-07T14:45:57.660Z,67.13
2019-06-07T14:48:32.750Z,69.93
2019-06-07T14:51:05.223Z,72.22
2019-06-07T14:53:40.826Z,72.20
2019-06-07T14:56:14.028Z,75.03
2019-06-07T14:58:46.720Z,75.06
2019-06-07T15:01:20.806Z,72.74
2019-06-07T15:03:53.213Z,71.76
2019-06-07T15:06:26.793Z,69.26
2019-06-07T15:08:59.490Z,67.00
2019-06-07T15:11:33.135Z,67.89
2019-06-07T15:14:08.095Z,70.59
2019-06-07T15:16:43.880Z,68.64
2019-06-07T15:19:17.671Z,68.89
2019-06-07T15:21:50.198Z,69.01
2019-06-07T15:24:22.519Z,69.14
2019-06-07T15:26:54.962Z,70.78
2019-06-07T15:29:27.495Z,67.65
2019-06-07T15:32:00.560Z,67.95
2019-06-07T15:34:34.318Z,67.70
2019-06-07T15:37:07.345Z,67.31
2019-06-07T15:39:39.602Z,67.90
2019-06-07T15:42:12.626Z,67.44
2019-06-07T15:44:45.864Z,66.13
2019-06-07T15:47:18.303Z,66.22
2019-06-07T15:49:52.104Z,68.39
2019-06-07T15:52:24.513Z,66.26
2019-06-07T15:54:57.062Z,67.58
2019-06-07T15:57:30.987Z,67.59
2019-06-07T16:00:06.931Z,70.21
2019-06-07T16:02:39.797Z,68.85
2019-06-07T16:05:12.970Z,69.31
2019-06-07T16:07:45.379Z,68.26
2019-06-07T16:10:18.483Z,69.22
2019-06-07T16:13:00.266Z,70.07
2019-06-07T16:15:25.323Z,69.87
2019-06-07T16:17:57.777Z,69.86
2019-06-07T16:20:30.360Z,71.21
2019-06-07T16:23:06.142Z,71.60
2019-06-07T16:25:39.985Z,72.76
2019-06-07T16:28:12.680Z,73.66
2019-06-07T16:30:45.119Z,73.08
2019-06-07T16:33:17.399Z,73.09
2019-06-07T16:35:51.407Z,73.45
2019-06-07T16:38:24.873Z,73.00
2019-06-07T16:40:58.918Z,73.48
2019-06-07T16:43:34.265Z,73.53
2019-06-07T16:46:11.846Z,74.10
2019-06-07T16:48:45.816Z,73.64
2019-06-07T16:51:20.446Z,73.21
2019-06-07T16:53:54.812Z,73.31
2019-06-07T16:56:28.525Z,73.63
2019-06-07T16:59:08.200Z,74.27
2019-06-07T17:01:41.097Z,75.19
2019-06-07T17:04:15.519Z,75.31
2019-06-07T17:06:48.720Z,76.77
2019-06-07T17:09:22.793Z,77.01
2019-06-07T17:11:55.381Z,78.02
2019-06-07T17:14:27.987Z,78.25
2019-06-07T17:17:01.013Z,78.31
2019-06-07T17:19:35.128Z,78.96
2019-06-07T17:22:07.852Z,78.90
2019-06-07T17:24:41.398Z,78.54
2019-06-07T17:27:16.037Z,77.99
2019-06-07T17:29:50.517Z,77.89
2019-06-07T18:39:53.156Z,70.44
2019-06-07T18:42:27.713Z,69.45
2019-06-07T18:45:01.541Z,68.19
2019-06-07T18:47:37.756Z,67.17
2019-06-07T18:50:12.779Z,67.83
2019-06-07T18:52:48.637Z,67.66
2019-06-07T18:55:23.961Z,67.62
2019-06-07T18:57:58.545Z,67.63
2019-06-07T19:00:33.874Z,67.32
2019-06-07T19:03:13.918Z,67.57
2019-06-07T19:05:48.129Z,67.55
2019-06-07T19:08:22.007Z,68.14
2019-06-07T19:10:56.832Z,68.07
2019-06-07T19:13:30.775Z,68.52
2019-06-07T19:16:04.382Z,68.81
2019-06-07T19:18:38.842Z,69.16
2019-06-07T19:21:16.404Z,70.01
2019-06-07T19:23:51.764Z,70.58
2019-06-07T19:26:25.137Z,70.51
2019-06-07T19:29:00.989Z,70.76
2019-06-07T19:31:34.406Z,70.18
2019-06-07T19:34:09.615Z,70.04
2019-06-07T19:36:48.738Z,69.88
2019-06-07T19:39:26.691Z,69.95
2019-06-07T19:42:00.327Z,70.58
2019-06-07T19:44:35.106Z,71.49
2019-06-07T19:47:08.584Z,71.55
2019-06-07T19:49:42.017Z,72.77
2019-06-07T19:52:14.737Z,73.82
2019-06-07T19:54:49.833Z,75.55
2019-06-07T19:57:22.415Z,76.23
2019-06-07T19:59:55.430Z,77.19
2019-06-07T20:02:30.943Z,77.54
2019-06-07T20:05:06.362Z,78.41
2019-06-07T20:07:36.410Z,79.04
2019-06-07T20:10:09.091Z,79.51
2019-06-07T20:12:43.876Z,80.24
2019-06-07T20:15:28.600Z,80.85
2019-06-07T20:17:55.117Z,79.33
2019-06-07T20:20:30.011Z,77.21
2019-06-07T20:23:05.186Z,76.51
2019-06-07T20:25:39.341Z,75.26
2019-06-07T20:28:12.581Z,75.37
2019-06-07T20:30:46.155Z,74.94
2019-06-07T20:33:19.358Z,73.39
2019-06-07T20:35:51.777Z,72.72
2019-06-07T20:38:24.137Z,72.59
2019-06-07T20:40:57.019Z,73.52
2019-06-07T20:43:29.453Z,74.16
2019-06-07T20:46:03.441Z,76.88
2019-06-07T20:48:36.659Z,78.54
2019-06-07T20:51:09.060Z,78.84
2019-06-07T20:53:41.370Z,78.74
2019-06-07T20:56:14.677Z,78.05
2019-06-07T20:58:47.337Z,78.35
2019-06-07T21:01:19.710Z,78.38
2019-06-07T21:03:52.077Z,77.73
2019-06-07T21:06:25.918Z,77.89
2019-06-07T21:09:01.518Z,77.87
2019-06-07T21:11:39.133Z,77.62
2019-06-07T21:14:11.666Z,77.95
2019-06-07T21:16:44.155Z,77.95
2019-06-07T21:19:16.562Z,77.72
2019-06-07T21:21:49.110Z,76.66
2019-06-07T21:24:21.620Z,75.98
2019-06-07T21:26:54.324Z,75.76
2019-06-07T21:29:28.523Z,76.26
2019-06-07T21:32:01.322Z,76.51
2019-06-07T21:34:34.696Z,76.52
2019-06-07T21:37:07.879Z,76.53
2019-06-07T21:39:41.086Z,76.48
2019-06-07T21:42:13.474Z,75.83
2019-06-07T21:44:46.442Z,75.72
2019-06-07T21:47:18.893Z,77.48
2019-06-07T21:49:51.254Z,77.95
2019-06-07T21:52:24.738Z,77.83
2019-06-07T21:54:57.070Z,77.62
2019-06-07T21:57:29.336Z,77.64
2019-06-07T22:00:03.247Z,77.56
2019-06-07T22:02:37.282Z,77.73
2019-06-07T22:05:09.818Z,78.12
2019-06-07T22:07:42.172Z,78.56
2019-06-07T22:10:14.984Z,78.64
2019-06-07T22:12:47.361Z,78.80
2019-06-07T22:15:33.129Z,78.52
2019-06-07T22:17:55.468Z,78.48
2019-06-07T22:20:28.046Z,78.72
2019-06-07T22:23:00.777Z,79.02
2019-06-07T22:25:33.788Z,79.59
2019-06-07T22:28:07.994Z,79.92
2019-06-07T22:30:40.602Z,79.81
2019-06-07T22:33:13.414Z,79.89
2019-06-07T22:35:47.141Z,79.86
2019-06-07T22:38:20.607Z,79.76
2019-06-07T22:40:53.155Z,79.55
2019-06-07T22:43:25.599Z,79.28
2019-06-07T22:45:57.970Z,79.25
2019-06-07T22:48:30.358Z,79.34
2019-06-07T22:51:07.253Z,79.44
2019-06-07T22:53:40.652Z,79.81
2019-06-07T22:56:19.797Z,79.90
2019-06-07T22:58:52.087Z,79.86
2019-06-07T23:01:26.025Z,80.39
2019-06-07T23:03:58.321Z,80.63
2019-06-07T23:06:30.659Z,80.80
2019-06-07T23:09:03.435Z,80.72
2019-06-07T23:11:36.409Z,80.67
2019-06-07T23:14:09.244Z,81.01
2019-06-07T23:16:54.930Z,81.45
2019-06-07T23:19:16.255Z,81.95
2019-06-07T23:21:48.636Z,82.27
2019-06-07T23:24:21.529Z,82.35
2019-06-07T23:26:54.151Z,82.04
2019-06-07T23:29:26.489Z,82.62
2019-06-07T23:31:59.116Z,83.21
2019-06-07T23:34:31.541Z,83.56
2019-06-07T23:37:05.107Z,83.88
2019-06-07T23:39:37.773Z,84.07
2019-06-07T23:42:11.034Z,84.09
2019-06-07T23:44:43.862Z,84.22
2019-06-07T23:47:17.711Z,84.18
2019-06-07T23:49:50.163Z,84.73
2019-06-07T23:52:22.856Z,85.52
2019-06-07T23:54:55.144Z,85.98
2019-06-07T23:57:27.665Z,86.75
